sensor_id;sensor_type;location;lat;lon;timestamp;P1;durP1;ratioP1;P2;durP2;ratioP2
11671;SDS011;5892;43.412;24.612;2023-03-11T00:00:22;6.70;;;6.00;;
11671;SDS011;5892;43.412;24.612;2023-03-11T00:02:52;6.43;;;5.73;;
11671;SDS011;5892;43.412;24.612;2023-03-11T00:05:21;6.53;;;5.93;;
11671;SDS011;5892;43.412;24.612;2023-03-11T00:07:50;6.37;;;5.77;;
11671;SDS011;5892;43.412;24.612;2023-03-11T00:10:18;8.70;;;6.93;;
11671;SDS011;5892;43.412;24.612;2023-03-11T00:12:47;7.70;;;5.70;;
11671;SDS011;5892;43.412;24.612;2023-03-11T00:15:14;6.60;;;5.60;;
11671;SDS011;5892;43.412;24.612;2023-03-11T00:17:43;7.10;;;6.20;;
11671;SDS011;5892;43.412;24.612;2023-03-11T00:20:14;9.83;;;7.27;;
11671;SDS011;5892;43.412;24.612;2023-03-11T00:22:44;7.27;;;6.57;;
11671;SDS011;5892;43.412;24.612;2023-03-11T00:25:11;7.97;;;7.00;;
11671;SDS011;5892;43.412;24.612;2023-03-11T00:27:39;8.10;;;7.03;;
11671;SDS011;5892;43.412;24.612;2023-03-11T00:30:06;7.87;;;6.70;;
11671;SDS011;5892;43.412;24.612;2023-03-11T00:32:35;7.50;;;6.80;;
11671;SDS011;5892;43.412;24.612;2023-03-11T00:35:05;9.87;;;6.57;;
11671;SDS011;5892;43.412;24.612;2023-03-11T00:37:33;7.50;;;6.80;;
11671;SDS011;5892;43.412;24.612;2023-03-11T00:40:00;9.30;;;7.40;;
11671;SDS011;5892;43.412;24.612;2023-03-11T00:42:32;7.47;;;6.70;;
11671;SDS011;5892;43.412;24.612;2023-03-11T00:44:59;8.20;;;7.40;;
11671;SDS011;5892;43.412;24.612;2023-03-11T00:47:26;8.23;;;7.27;;
11671;SDS011;5892;43.412;24.612;2023-03-11T00:49:53;8.43;;;7.43;;
11671;SDS011;5892;43.412;24.612;2023-03-11T00:52:22;8.53;;;7.47;;
11671;SDS011;5892;43.412;24.612;2023-03-11T00:54:50;8.13;;;7.33;;
11671;SDS011;5892;43.412;24.612;2023-03-11T00:57:17;8.53;;;7.60;;
11671;SDS011;5892;43.412;24.612;2023-03-11T00:59:44;9.17;;;8.20;;
11671;SDS011;5892;43.412;24.612;2023-03-11T01:02:12;9.73;;;8.03;;
11671;SDS011;5892;43.412;24.612;2023-03-11T01:04:39;9.27;;;7.83;;
11671;SDS011;5892;43.412;24.612;2023-03-11T01:07:06;8.50;;;7.40;;
11671;SDS011;5892;43.412;24.612;2023-03-11T01:09:35;10.33;;;7.90;;
11671;SDS011;5892;43.412;24.612;2023-03-11T01:12:03;9.27;;;7.07;;
11671;SDS011;5892;43.412;24.612;2023-03-11T01:14:30;8.37;;;7.50;;
11671;SDS011;5892;43.412;24.612;2023-03-11T01:16:57;8.47;;;7.63;;
11671;SDS011;5892;43.412;24.612;2023-03-11T01:19:24;8.23;;;7.43;;
11671;SDS011;5892;43.412;24.612;2023-03-11T01:21:51;10.10;;;7.90;;
11671;SDS011;5892;43.412;24.612;2023-03-11T01:24:18;9.40;;;7.10;;
11671;SDS011;5892;43.412;24.612;2023-03-11T01:26:46;8.50;;;7.40;;
11671;SDS011;5892;43.412;24.612;2023-03-11T01:29:14;8.73;;;7.83;;
11671;SDS011;5892;43.412;24.612;2023-03-11T01:31:41;8.70;;;7.63;;
11671;SDS011;5892;43.412;24.612;2023-03-11T01:34:08;8.33;;;7.43;;
11671;SDS011;5892;43.412;24.612;2023-03-11T01:36:36;10.40;;;7.57;;
11671;SDS011;5892;43.412;24.612;2023-03-11T01:39:04;8.20;;;7.37;;
11671;SDS011;5892;43.412;24.612;2023-03-11T01:41:31;8.43;;;7.63;;
11671;SDS011;5892;43.412;24.612;2023-03-11T01:44:00;8.47;;;7.67;;
11671;SDS011;5892;43.412;24.612;2023-03-11T01:46:30;7.77;;;7.07;;
11671;SDS011;5892;43.412;24.612;2023-03-11T01:49:00;9.10;;;8.20;;
11671;SDS011;5892;43.412;24.612;2023-03-11T01:51:32;9.20;;;8.20;;
11671;SDS011;5892;43.412;24.612;2023-03-11T01:54:03;11.20;;;8.20;;
11671;SDS011;5892;43.412;24.612;2023-03-11T01:56:32;8.67;;;7.77;;
11671;SDS011;5892;43.412;24.612;2023-03-11T01:59:03;9.43;;;8.53;;
11671;SDS011;5892;43.412;24.612;2023-03-11T02:01:31;9.47;;;8.27;;
11671;SDS011;5892;43.412;24.612;2023-03-11T02:03:59;8.83;;;7.93;;
11671;SDS011;5892;43.412;24.612;2023-03-11T02:06:29;10.40;;;8.30;;
11671;SDS011;5892;43.412;24.612;2023-03-11T02:08:58;8.97;;;7.93;;
11671;SDS011;5892;43.412;24.612;2023-03-11T02:11:26;8.77;;;7.70;;
11671;SDS011;5892;43.412;24.612;2023-03-11T02:13:57;9.40;;;8.03;;
11671;SDS011;5892;43.412;24.612;2023-03-11T02:16:29;10.20;;;8.40;;
11671;SDS011;5892;43.412;24.612;2023-03-11T02:18:58;11.67;;;8.87;;
11671;SDS011;5892;43.412;24.612;2023-03-11T02:21:32;10.07;;;8.90;;
11671;SDS011;5892;43.412;24.612;2023-03-11T02:24:01;10.53;;;9.33;;
11671;SDS011;5892;43.412;24.612;2023-03-11T02:26:36;8.57;;;7.67;;
11671;SDS011;5892;43.412;24.612;2023-03-11T02:29:09;7.83;;;7.03;;
11671;SDS011;5892;43.412;24.612;2023-03-11T02:31:37;9.60;;;7.60;;
11671;SDS011;5892;43.412;24.612;2023-03-11T02:34:07;10.07;;;7.60;;
11671;SDS011;5892;43.412;24.612;2023-03-11T02:36:42;8.57;;;6.93;;
11671;SDS011;5892;43.412;24.612;2023-03-11T02:39:09;8.07;;;6.23;;
11671;SDS011;5892;43.412;24.612;2023-03-11T02:41:37;6.80;;;6.10;;
11671;SDS011;5892;43.412;24.612;2023-03-11T02:44:11;7.23;;;6.17;;
11671;SDS011;5892;43.412;24.612;2023-03-11T02:46:41;6.47;;;5.87;;
11671;SDS011;5892;43.412;24.612;2023-03-11T02:49:09;6.67;;;5.87;;
11671;SDS011;5892;43.412;24.612;2023-03-11T02:51:37;7.57;;;6.07;;
11671;SDS011;5892;43.412;24.612;2023-03-11T02:54:04;6.30;;;5.70;;
11671;SDS011;5892;43.412;24.612;2023-03-11T02:56:32;8.40;;;6.10;;
11671;SDS011;5892;43.412;24.612;2023-03-11T02:58:59;6.40;;;5.80;;
11671;SDS011;5892;43.412;24.612;2023-03-11T03:01:28;6.13;;;5.63;;
11671;SDS011;5892;43.412;24.612;2023-03-11T03:03:55;6.73;;;6.10;;
11671;SDS011;5892;43.412;24.612;2023-03-11T03:06:23;6.30;;;5.70;;
11671;SDS011;5892;43.412;24.612;2023-03-11T03:08:50;7.87;;;6.33;;
11671;SDS011;5892;43.412;24.612;2023-03-11T03:11:17;8.53;;;7.27;;
11671;SDS011;5892;43.412;24.612;2023-03-11T03:13:44;9.77;;;7.07;;
11671;SDS011;5892;43.412;24.612;2023-03-11T03:16:11;6.43;;;5.83;;
11671;SDS011;5892;43.412;24.612;2023-03-11T03:18:41;6.70;;;6.10;;
11671;SDS011;5892;43.412;24.612;2023-03-11T03:21:08;6.77;;;6.17;;
11671;SDS011;5892;43.412;24.612;2023-03-11T03:23:35;6.80;;;5.60;;
11671;SDS011;5892;43.412;24.612;2023-03-11T03:26:02;7.93;;;5.97;;
11671;SDS011;5892;43.412;24.612;2023-03-11T03:28:29;7.03;;;6.33;;
11671;SDS011;5892;43.412;24.612;2023-03-11T03:31:02;6.50;;;5.90;;
11671;SDS011;5892;43.412;24.612;2023-03-11T03:33:30;7.47;;;6.20;;
11671;SDS011;5892;43.412;24.612;2023-03-11T03:35:59;6.53;;;5.93;;
11671;SDS011;5892;43.412;24.612;2023-03-11T03:38:26;7.63;;;6.90;;
11671;SDS011;5892;43.412;24.612;2023-03-11T03:40:53;7.90;;;7.20;;
11671;SDS011;5892;43.412;24.612;2023-03-11T03:43:20;7.40;;;6.53;;
11671;SDS011;5892;43.412;24.612;2023-03-11T03:45:53;6.87;;;5.90;;
11671;SDS011;5892;43.412;24.612;2023-03-11T03:48:21;8.83;;;7.17;;
11671;SDS011;5892;43.412;24.612;2023-03-11T03:50:48;15.87;;;14.27;;
11671;SDS011;5892;43.412;24.612;2023-03-11T03:53:17;11.17;;;10.03;;
11671;SDS011;5892;43.412;24.612;2023-03-11T03:55:45;6.13;;;5.13;;
11671;SDS011;5892;43.412;24.612;2023-03-11T03:58:12;6.17;;;5.30;;
11671;SDS011;5892;43.412;24.612;2023-03-11T04:00:39;5.97;;;5.47;;
11671;SDS011;5892;43.412;24.612;2023-03-11T04:03:06;6.20;;;5.70;;
11671;SDS011;5892;43.412;24.612;2023-03-11T04:05:34;6.60;;;5.70;;
11671;SDS011;5892;43.412;24.612;2023-03-11T04:08:01;6.60;;;5.60;;
11671;SDS011;5892;43.412;24.612;2023-03-11T04:10:30;6.93;;;5.73;;
11671;SDS011;5892;43.412;24.612;2023-03-11T04:12:57;7.97;;;7.17;;
11671;SDS011;5892;43.412;24.612;2023-03-11T04:15:24;8.97;;;7.57;;
11671;SDS011;5892;43.412;24.612;2023-03-11T04:17:51;12.93;;;11.33;;
11671;SDS011;5892;43.412;24.612;2023-03-11T04:20:18;13.03;;;10.07;;
11671;SDS011;5892;43.412;24.612;2023-03-11T04:22:45;15.20;;;11.77;;
11671;SDS011;5892;43.412;24.612;2023-03-11T04:25:12;12.43;;;11.23;;
11671;SDS011;5892;43.412;24.612;2023-03-11T04:27:43;8.63;;;6.80;;
11671;SDS011;5892;43.412;24.612;2023-03-11T04:30:17;11.97;;;10.77;;
11671;SDS011;5892;43.412;24.612;2023-03-11T04:32:44;9.67;;;8.03;;
11671;SDS011;5892;43.412;24.612;2023-03-11T04:35:11;7.33;;;6.67;;
11671;SDS011;5892;43.412;24.612;2023-03-11T04:37:38;6.10;;;5.50;;
11671;SDS011;5892;43.412;24.612;2023-03-11T04:40:06;7.07;;;5.63;;
11671;SDS011;5892;43.412;24.612;2023-03-11T04:42:35;6.10;;;5.57;;
11671;SDS011;5892;43.412;24.612;2023-03-11T04:45:05;5.67;;;5.17;;
11671;SDS011;5892;43.412;24.612;2023-03-11T04:47:35;5.53;;;5.03;;
11671;SDS011;5892;43.412;24.612;2023-03-11T04:50:03;5.63;;;4.97;;
11671;SDS011;5892;43.412;24.612;2023-03-11T04:52:30;5.73;;;4.77;;
11671;SDS011;5892;43.412;24.612;2023-03-11T04:54:57;5.23;;;4.73;;
11671;SDS011;5892;43.412;24.612;2023-03-11T04:57:25;5.50;;;5.00;;
11671;SDS011;5892;43.412;24.612;2023-03-11T04:59:52;7.50;;;5.00;;
11671;SDS011;5892;43.412;24.612;2023-03-11T05:02:21;6.00;;;5.50;;
11671;SDS011;5892;43.412;24.612;2023-03-11T05:04:49;8.53;;;6.50;;
11671;SDS011;5892;43.412;24.612;2023-03-11T05:07:16;6.90;;;6.20;;
11671;SDS011;5892;43.412;24.612;2023-03-11T05:09:43;6.13;;;5.53;;
11671;SDS011;5892;43.412;24.612;2023-03-11T05:12:10;6.17;;;5.57;;
11671;SDS011;5892;43.412;24.612;2023-03-11T05:14:38;8.03;;;5.73;;
11671;SDS011;5892;43.412;24.612;2023-03-11T05:17:05;6.73;;;5.90;;
11671;SDS011;5892;43.412;24.612;2023-03-11T05:19:34;3.97;;;3.57;;
11671;SDS011;5892;43.412;24.612;2023-03-11T05:22:01;3.70;;;3.40;;
11671;SDS011;5892;43.412;24.612;2023-03-11T05:24:28;5.87;;;3.37;;
11671;SDS011;5892;43.412;24.612;2023-03-11T05:26:56;3.63;;;3.33;;
11671;SDS011;5892;43.412;24.612;2023-03-11T05:29:23;4.27;;;3.93;;
11671;SDS011;5892;43.412;24.612;2023-03-11T05:31:51;10.00;;;7.47;;
11671;SDS011;5892;43.412;24.612;2023-03-11T05:34:18;10.83;;;9.83;;
11671;SDS011;5892;43.412;24.612;2023-03-11T05:36:47;11.50;;;10.40;;
11671;SDS011;5892;43.412;24.612;2023-03-11T05:39:14;10.00;;;9.10;;
11671;SDS011;5892;43.412;24.612;2023-03-11T05:41:41;9.47;;;8.43;;
11671;SDS011;5892;43.412;24.612;2023-03-11T05:44:08;9.13;;;8.23;;
11671;SDS011;5892;43.412;24.612;2023-03-11T05:46:35;7.80;;;7.10;;
11671;SDS011;5892;43.412;24.612;2023-03-11T05:49:02;7.40;;;5.60;;
11671;SDS011;5892;43.412;24.612;2023-03-11T05:51:30;4.80;;;4.37;;
11671;SDS011;5892;43.412;24.612;2023-03-11T05:54:06;4.07;;;3.77;;
11671;SDS011;5892;43.412;24.612;2023-03-11T05:56:39;8.00;;;4.00;;
11671;SDS011;5892;43.412;24.612;2023-03-11T05:59:06;4.10;;;3.63;;
11671;SDS011;5892;43.412;24.612;2023-03-11T06:01:33;2.90;;;2.70;;
11671;SDS011;5892;43.412;24.612;2023-03-11T06:04:01;3.70;;;2.97;;
11671;SDS011;5892;43.412;24.612;2023-03-11T06:06:28;3.30;;;3.00;;
11671;SDS011;5892;43.412;24.612;2023-03-11T06:08:55;3.97;;;3.67;;
11671;SDS011;5892;43.412;24.612;2023-03-11T06:11:24;4.70;;;4.30;;
11671;SDS011;5892;43.412;24.612;2023-03-11T06:13:51;5.50;;;4.40;;
11671;SDS011;5892;43.412;24.612;2023-03-11T06:16:20;5.63;;;3.63;;
11671;SDS011;5892;43.412;24.612;2023-03-11T06:18:47;3.73;;;3.30;;
11671;SDS011;5892;43.412;24.612;2023-03-11T06:21:21;3.53;;;3.23;;
11671;SDS011;5892;43.412;24.612;2023-03-11T06:23:50;3.20;;;2.87;;
11671;SDS011;5892;43.412;24.612;2023-03-11T06:26:18;4.53;;;3.10;;
11671;SDS011;5892;43.412;24.612;2023-03-11T06:28:48;3.00;;;2.70;;
11671;SDS011;5892;43.412;24.612;2023-03-11T06:31:17;5.10;;;2.90;;
11671;SDS011;5892;43.412;24.612;2023-03-11T06:33:45;6.03;;;3.53;;
11671;SDS011;5892;43.412;24.612;2023-03-11T06:36:13;3.20;;;2.90;;
11671;SDS011;5892;43.412;24.612;2023-03-11T06:38:41;5.00;;;2.87;;
11671;SDS011;5892;43.412;24.612;2023-03-11T06:41:08;3.47;;;2.80;;
11671;SDS011;5892;43.412;24.612;2023-03-11T06:43:44;3.20;;;2.90;;
11671;SDS011;5892;43.412;24.612;2023-03-11T06:46:14;2.93;;;2.73;;
11671;SDS011;5892;43.412;24.612;2023-03-11T06:48:42;4.50;;;3.33;;
11671;SDS011;5892;43.412;24.612;2023-03-11T06:51:10;6.57;;;3.80;;
11671;SDS011;5892;43.412;24.612;2023-03-11T06:53:37;3.90;;;2.83;;
11671;SDS011;5892;43.412;24.612;2023-03-11T06:56:06;3.00;;;2.70;;
11671;SDS011;5892;43.412;24.612;2023-03-11T06:58:34;4.80;;;3.13;;
11671;SDS011;5892;43.412;24.612;2023-03-11T07:01:03;4.67;;;2.93;;
11671;SDS011;5892;43.412;24.612;2023-03-11T07:03:33;5.53;;;3.63;;
11671;SDS011;5892;43.412;24.612;2023-03-11T07:06:04;13.13;;;6.77;;
11671;SDS011;5892;43.412;24.612;2023-03-11T07:08:31;14.00;;;8.17;;
11671;SDS011;5892;43.412;24.612;2023-03-11T07:11:00;8.60;;;6.07;;
11671;SDS011;5892;43.412;24.612;2023-03-11T07:13:29;4.00;;;3.47;;
11671;SDS011;5892;43.412;24.612;2023-03-11T07:16:00;3.00;;;2.70;;
11671;SDS011;5892;43.412;24.612;2023-03-11T07:18:28;2.60;;;2.40;;
11671;SDS011;5892;43.412;24.612;2023-03-11T07:20:57;2.80;;;2.60;;
11671;SDS011;5892;43.412;24.612;2023-03-11T07:23:26;3.00;;;2.70;;
11671;SDS011;5892;43.412;24.612;2023-03-11T07:25:53;2.10;;;1.90;;
11671;SDS011;5892;43.412;24.612;2023-03-11T07:28:21;2.33;;;2.00;;
11671;SDS011;5892;43.412;24.612;2023-03-11T07:30:48;2.73;;;2.30;;
11671;SDS011;5892;43.412;24.612;2023-03-11T07:33:19;2.33;;;2.13;;
11671;SDS011;5892;43.412;24.612;2023-03-11T07:35:48;3.60;;;2.07;;
11671;SDS011;5892;43.412;24.612;2023-03-11T07:38:17;2.00;;;1.90;;
11671;SDS011;5892;43.412;24.612;2023-03-11T07:40:44;2.77;;;2.00;;
11671;SDS011;5892;43.412;24.612;2023-03-11T07:43:12;2.53;;;2.30;;
11671;SDS011;5892;43.412;24.612;2023-03-11T07:45:40;1.97;;;1.70;;
11671;SDS011;5892;43.412;24.612;2023-03-11T07:48:07;1.20;;;1.10;;
11671;SDS011;5892;43.412;24.612;2023-03-11T07:50:34;1.53;;;1.43;;
11671;SDS011;5892;43.412;24.612;2023-03-11T07:53:02;1.30;;;1.20;;
11671;SDS011;5892;43.412;24.612;2023-03-11T07:55:35;2.17;;;1.33;;
11671;SDS011;5892;43.412;24.612;2023-03-11T07:58:02;1.20;;;1.10;;
11671;SDS011;5892;43.412;24.612;2023-03-11T08:00:31;0.97;;;0.87;;
11671;SDS011;5892;43.412;24.612;2023-03-11T08:02:58;1.00;;;1.00;;
11671;SDS011;5892;43.412;24.612;2023-03-11T08:05:25;0.90;;;0.90;;
11671;SDS011;5892;43.412;24.612;2023-03-11T08:07:52;0.90;;;0.90;;
11671;SDS011;5892;43.412;24.612;2023-03-11T08:10:19;1.00;;;1.00;;
11671;SDS011;5892;43.412;24.612;2023-03-11T08:12:48;0.70;;;0.70;;
11671;SDS011;5892;43.412;24.612;2023-03-11T08:15:16;1.20;;;1.10;;
11671;SDS011;5892;43.412;24.612;2023-03-11T08:17:43;2.07;;;1.40;;
11671;SDS011;5892;43.412;24.612;2023-03-11T08:20:10;1.30;;;1.20;;
11671;SDS011;5892;43.412;24.612;2023-03-11T08:22:38;2.80;;;1.17;;
11671;SDS011;5892;43.412;24.612;2023-03-11T08:25:05;1.00;;;1.00;;
11671;SDS011;5892;43.412;24.612;2023-03-11T08:27:33;1.07;;;0.90;;
11671;SDS011;5892;43.412;24.612;2023-03-11T08:30:01;2.40;;;1.20;;
11671;SDS011;5892;43.412;24.612;2023-03-11T08:32:30;2.20;;;1.00;;
11671;SDS011;5892;43.412;24.612;2023-03-11T08:34:57;1.20;;;1.10;;
11671;SDS011;5892;43.412;24.612;2023-03-11T08:37:25;1.10;;;1.10;;
11671;SDS011;5892;43.412;24.612;2023-03-11T08:39:52;1.83;;;1.23;;
11671;SDS011;5892;43.412;24.612;2023-03-11T08:42:19;1.20;;;1.10;;
11671;SDS011;5892;43.412;24.612;2023-03-11T08:44:46;1.50;;;1.07;;
11671;SDS011;5892;43.412;24.612;2023-03-11T08:47:19;1.57;;;1.10;;
11671;SDS011;5892;43.412;24.612;2023-03-11T08:49:46;1.97;;;0.90;;
11671;SDS011;5892;43.412;24.612;2023-03-11T08:52:13;4.07;;;1.20;;
11671;SDS011;5892;43.412;24.612;2023-03-11T08:54:41;1.83;;;1.30;;
11671;SDS011;5892;43.412;24.612;2023-03-11T08:57:09;1.20;;;1.10;;
11671;SDS011;5892;43.412;24.612;2023-03-11T08:59:37;2.00;;;1.10;;
11671;SDS011;5892;43.412;24.612;2023-03-11T09:02:08;1.80;;;0.93;;
11671;SDS011;5892;43.412;24.612;2023-03-11T09:14:08;4.03;;;2.10;;
11671;SDS011;5892;43.412;24.612;2023-03-11T09:16:49;2.40;;;2.20;;
11671;SDS011;5892;43.412;24.612;2023-03-11T09:19:30;2.60;;;2.40;;
11671;SDS011;5892;43.412;24.612;2023-03-11T09:21:58;3.53;;;2.80;;
11671;SDS011;5892;43.412;24.612;2023-03-11T09:24:27;6.50;;;2.73;;
11671;SDS011;5892;43.412;24.612;2023-03-11T09:27:00;3.23;;;2.43;;
11671;SDS011;5892;43.412;24.612;2023-03-11T09:29:29;2.40;;;2.20;;
11671;SDS011;5892;43.412;24.612;2023-03-11T09:31:59;2.63;;;2.00;;
11671;SDS011;5892;43.412;24.612;2023-03-11T09:34:49;2.83;;;2.57;;
11671;SDS011;5892;43.412;24.612;2023-03-11T09:37:34;2.67;;;2.47;;
11671;SDS011;5892;43.412;24.612;2023-03-11T09:40:16;3.30;;;3.00;;
11671;SDS011;5892;43.412;24.612;2023-03-11T09:55:20;2.17;;;2.07;;
11671;SDS011;5892;43.412;24.612;2023-03-11T09:58:11;3.27;;;2.40;;
11671;SDS011;5892;43.412;24.612;2023-03-11T10:00:50;2.27;;;2.07;;
11671;SDS011;5892;43.412;24.612;2023-03-11T10:03:28;3.90;;;2.20;;
11671;SDS011;5892;43.412;24.612;2023-03-11T10:06:13;4.00;;;2.43;;
11671;SDS011;5892;43.412;24.612;2023-03-11T10:11:55;2.70;;;2.50;;
11671;SDS011;5892;43.412;24.612;2023-03-11T10:14:36;2.87;;;2.57;;
11671;SDS011;5892;43.412;24.612;2023-03-11T10:20:25;3.20;;;2.70;;
11671;SDS011;5892;43.412;24.612;2023-03-11T10:23:14;3.60;;;2.70;;
11671;SDS011;5892;43.412;24.612;2023-03-11T10:25:55;2.80;;;2.60;;
11671;SDS011;5892;43.412;24.612;2023-03-11T10:28:30;3.87;;;2.90;;
11671;SDS011;5892;43.412;24.612;2023-03-11T10:31:18;2.63;;;2.43;;
11671;SDS011;5892;43.412;24.612;2023-03-11T10:34:05;2.50;;;2.30;;
11671;SDS011;5892;43.412;24.612;2023-03-11T10:36:49;2.93;;;2.60;;
11671;SDS011;5892;43.412;24.612;2023-03-11T10:39:22;3.43;;;2.60;;
11671;SDS011;5892;43.412;24.612;2023-03-11T10:42:00;3.13;;;2.67;;
11671;SDS011;5892;43.412;24.612;2023-03-11T10:44:41;4.10;;;2.30;;
11671;SDS011;5892;43.412;24.612;2023-03-11T10:47:22;2.30;;;2.10;;
11671;SDS011;5892;43.412;24.612;2023-03-11T10:49:51;3.50;;;2.23;;
11671;SDS011;5892;43.412;24.612;2023-03-11T10:52:19;2.77;;;2.57;;
11671;SDS011;5892;43.412;24.612;2023-03-11T10:54:47;3.10;;;2.40;;
11671;SDS011;5892;43.412;24.612;2023-03-11T10:57:27;3.57;;;2.47;;
11671;SDS011;5892;43.412;24.612;2023-03-11T10:59:59;2.70;;;2.20;;
11671;SDS011;5892;43.412;24.612;2023-03-11T11:02:37;2.43;;;2.20;;
11671;SDS011;5892;43.412;24.612;2023-03-11T11:05:20;2.37;;;2.00;;
11671;SDS011;5892;43.412;24.612;2023-03-11T11:08:04;2.57;;;2.37;;
11671;SDS011;5892;43.412;24.612;2023-03-11T11:10:33;2.37;;;2.17;;
11671;SDS011;5892;43.412;24.612;2023-03-11T11:13:14;2.30;;;2.10;;
11671;SDS011;5892;43.412;24.612;2023-03-11T11:15:50;2.50;;;2.30;;
11671;SDS011;5892;43.412;24.612;2023-03-11T11:18:22;2.43;;;2.23;;
11671;SDS011;5892;43.412;24.612;2023-03-11T11:20:59;2.70;;;2.50;;
11671;SDS011;5892;43.412;24.612;2023-03-11T11:23:36;2.13;;;2.00;;
11671;SDS011;5892;43.412;24.612;2023-03-11T11:26:07;9.20;;;2.53;;
11671;SDS011;5892;43.412;24.612;2023-03-11T11:39:27;2.60;;;2.40;;
11671;SDS011;5892;43.412;24.612;2023-03-11T11:41:57;3.60;;;2.70;;
11671;SDS011;5892;43.412;24.612;2023-03-11T11:44:27;4.60;;;2.77;;
11671;SDS011;5892;43.412;24.612;2023-03-11T11:46:58;3.40;;;3.10;;
11671;SDS011;5892;43.412;24.612;2023-03-11T11:49:35;4.97;;;3.00;;
11671;SDS011;5892;43.412;24.612;2023-03-11T11:52:04;6.87;;;5.37;;
11671;SDS011;5892;43.412;24.612;2023-03-11T11:54:40;5.13;;;4.50;;
11671;SDS011;5892;43.412;24.612;2023-03-11T11:57:12;16.43;;;12.43;;
11671;SDS011;5892;43.412;24.612;2023-03-11T11:59:41;9.70;;;7.53;;
11671;SDS011;5892;43.412;24.612;2023-03-11T12:02:14;6.93;;;6.23;;
11671;SDS011;5892;43.412;24.612;2023-03-11T12:04:53;10.33;;;7.43;;
11671;SDS011;5892;43.412;24.612;2023-03-11T12:07:36;4.77;;;4.30;;
11671;SDS011;5892;43.412;24.612;2023-03-11T12:10:22;9.47;;;7.67;;
11671;SDS011;5892;43.412;24.612;2023-03-11T12:13:05;4.70;;;4.00;;
11671;SDS011;5892;43.412;24.612;2023-03-11T12:16:09;6.77;;;5.20;;
11671;SDS011;5892;43.412;24.612;2023-03-11T12:18:41;8.93;;;5.87;;
11671;SDS011;5892;43.412;24.612;2023-03-11T12:21:16;4.80;;;4.30;;
11671;SDS011;5892;43.412;24.612;2023-03-11T12:23:54;5.10;;;4.60;;
11671;SDS011;5892;43.412;24.612;2023-03-11T12:26:38;7.60;;;6.20;;
11671;SDS011;5892;43.412;24.612;2023-03-11T12:29:11;6.63;;;5.80;;
11671;SDS011;5892;43.412;24.612;2023-03-11T12:31:51;5.63;;;5.10;;
11671;SDS011;5892;43.412;24.612;2023-03-11T12:34:21;6.17;;;4.87;;
11671;SDS011;5892;43.412;24.612;2023-03-11T12:36:50;3.30;;;3.00;;
11671;SDS011;5892;43.412;24.612;2023-03-11T12:39:19;3.80;;;3.40;;
11671;SDS011;5892;43.412;24.612;2023-03-11T12:44:41;3.60;;;3.30;;
11671;SDS011;5892;43.412;24.612;2023-03-11T12:49:54;3.90;;;3.60;;
11671;SDS011;5892;43.412;24.612;2023-03-11T12:55:32;4.50;;;3.07;;
11671;SDS011;5892;43.412;24.612;2023-03-11T13:04:03;2.70;;;2.50;;
11671;SDS011;5892;43.412;24.612;2023-03-11T13:10:02;4.97;;;2.70;;
11671;SDS011;5892;43.412;24.612;2023-03-11T13:12:48;2.97;;;2.70;;
11671;SDS011;5892;43.412;24.612;2023-03-11T13:15:32;3.73;;;2.20;;
11671;SDS011;5892;43.412;24.612;2023-03-11T13:18:16;2.33;;;2.10;;
11671;SDS011;5892;43.412;24.612;2023-03-11T13:20:49;3.07;;;2.77;;
11671;SDS011;5892;43.412;24.612;2023-03-11T13:23:24;2.53;;;2.33;;
11671;SDS011;5892;43.412;24.612;2023-03-11T13:26:16;4.13;;;2.50;;
11671;SDS011;5892;43.412;24.612;2023-03-11T13:32:01;2.80;;;2.50;;
11671;SDS011;5892;43.412;24.612;2023-03-11T13:34:44;2.70;;;2.50;;
11671;SDS011;5892;43.412;24.612;2023-03-11T13:37:19;3.27;;;2.23;;
11671;SDS011;5892;43.412;24.612;2023-03-11T13:39:59;3.17;;;2.70;;
11671;SDS011;5892;43.412;24.612;2023-03-11T13:42:40;2.87;;;2.50;;
11671;SDS011;5892;43.412;24.612;2023-03-11T13:45:16;2.70;;;2.50;;
11671;SDS011;5892;43.412;24.612;2023-03-11T13:47:54;2.50;;;2.30;;
11671;SDS011;5892;43.412;24.612;2023-03-11T13:50:25;2.20;;;2.00;;
11671;SDS011;5892;43.412;24.612;2023-03-11T13:53:35;1.90;;;1.80;;
11671;SDS011;5892;43.412;24.612;2023-03-11T13:55:54;2.40;;;1.80;;
11671;SDS011;5892;43.412;24.612;2023-03-11T13:58:22;4.80;;;2.17;;
11671;SDS011;5892;43.412;24.612;2023-03-11T14:00:51;3.57;;;2.00;;
11671;SDS011;5892;43.412;24.612;2023-03-11T14:03:21;2.73;;;1.80;;
11671;SDS011;5892;43.412;24.612;2023-03-11T14:05:50;1.93;;;1.83;;
11671;SDS011;5892;43.412;24.612;2023-03-11T14:08:25;1.97;;;1.67;;
11671;SDS011;5892;43.412;24.612;2023-03-11T14:10:54;1.90;;;1.80;;
11671;SDS011;5892;43.412;24.612;2023-03-11T14:13:23;2.10;;;1.90;;
11671;SDS011;5892;43.412;24.612;2023-03-11T14:15:53;2.33;;;2.00;;
11671;SDS011;5892;43.412;24.612;2023-03-11T14:18:43;1.93;;;1.80;;
11671;SDS011;5892;43.412;24.612;2023-03-11T14:21:13;3.67;;;2.20;;
11671;SDS011;5892;43.412;24.612;2023-03-11T14:23:42;3.97;;;2.40;;
11671;SDS011;5892;43.412;24.612;2023-03-11T14:26:14;2.47;;;2.10;;
11671;SDS011;5892;43.412;24.612;2023-03-11T14:28:44;4.77;;;2.23;;
11671;SDS011;5892;43.412;24.612;2023-03-11T14:31:22;2.40;;;2.10;;
11671;SDS011;5892;43.412;24.612;2023-03-11T14:33:55;4.13;;;2.20;;
11671;SDS011;5892;43.412;24.612;2023-03-11T14:36:28;2.43;;;2.00;;
11671;SDS011;5892;43.412;24.612;2023-03-11T14:38:57;2.50;;;2.30;;
11671;SDS011;5892;43.412;24.612;2023-03-11T14:41:23;2.50;;;2.30;;
11671;SDS011;5892;43.412;24.612;2023-03-11T14:44:10;2.60;;;2.40;;
11671;SDS011;5892;43.412;24.612;2023-03-11T14:46:38;2.93;;;2.50;;
11671;SDS011;5892;43.412;24.612;2023-03-11T14:49:07;2.43;;;2.23;;
11671;SDS011;5892;43.412;24.612;2023-03-11T14:51:42;2.17;;;1.80;;
11671;SDS011;5892;43.412;24.612;2023-03-11T14:54:13;1.60;;;1.00;;
11671;SDS011;5892;43.412;24.612;2023-03-11T14:56:45;1.77;;;1.20;;
11671;SDS011;5892;43.412;24.612;2023-03-11T14:59:24;2.50;;;1.00;;
11671;SDS011;5892;43.412;24.612;2023-03-11T15:02:29;4.30;;;1.00;;
11671;SDS011;5892;43.412;24.612;2023-03-11T15:05:15;2.50;;;1.07;;
11671;SDS011;5892;43.412;24.612;2023-03-11T15:07:47;3.27;;;0.90;;
11671;SDS011;5892;43.412;24.612;2023-03-11T15:10:29;2.87;;;1.00;;
11671;SDS011;5892;43.412;24.612;2023-03-11T15:13:08;3.07;;;1.10;;
11671;SDS011;5892;43.412;24.612;2023-03-11T15:15:39;1.57;;;1.10;;
11671;SDS011;5892;43.412;24.612;2023-03-11T15:21:11;3.47;;;1.00;;
11671;SDS011;5892;43.412;24.612;2023-03-11T15:23:55;1.47;;;1.10;;
11671;SDS011;5892;43.412;24.612;2023-03-11T15:26:27;2.20;;;1.20;;
11671;SDS011;5892;43.412;24.612;2023-03-11T15:28:56;3.37;;;1.50;;
11671;SDS011;5892;43.412;24.612;2023-03-11T15:31:26;1.57;;;1.10;;
11671;SDS011;5892;43.412;24.612;2023-03-11T15:34:06;3.50;;;2.03;;
11671;SDS011;5892;43.412;24.612;2023-03-11T15:36:58;4.60;;;1.60;;
11671;SDS011;5892;43.412;24.612;2023-03-11T15:39:39;4.67;;;1.67;;
11671;SDS011;5892;43.412;24.612;2023-03-11T15:42:11;5.77;;;1.17;;
11671;SDS011;5892;43.412;24.612;2023-03-11T15:45:09;3.33;;;1.33;;
11671;SDS011;5892;43.412;24.612;2023-03-11T15:47:53;6.33;;;0.90;;
11671;SDS011;5892;43.412;24.612;2023-03-11T15:50:21;4.80;;;2.13;;
11671;SDS011;5892;43.412;24.612;2023-03-11T15:52:54;3.30;;;2.23;;
11671;SDS011;5892;43.412;24.612;2023-03-11T15:55:23;3.77;;;1.40;;
11671;SDS011;5892;43.412;24.612;2023-03-11T15:57:53;5.50;;;1.00;;
11671;SDS011;5892;43.412;24.612;2023-03-11T16:00:25;2.10;;;1.70;;
11671;SDS011;5892;43.412;24.612;2023-03-11T16:02:53;3.30;;;1.10;;
11671;SDS011;5892;43.412;24.612;2023-03-11T16:05:21;2.53;;;1.00;;
11671;SDS011;5892;43.412;24.612;2023-03-11T16:07:50;3.27;;;1.40;;
11671;SDS011;5892;43.412;24.612;2023-03-11T16:10:24;3.90;;;1.10;;
11671;SDS011;5892;43.412;24.612;2023-03-11T16:12:53;3.37;;;1.03;;